Chesaning, Michigan
Current Conditions -  °F | °C
As of 10:34 AM on Monday 24 Nov 2014 (Local Time) from KRNP Reporting Station
Drizzle Drizzle  
Wind Chill: 52°   Ceiling: 1300
Heat Index: 52°   Visibility: 7mi
Dew Point: 52°   Wind: 5mph
Humidity: 99%   Direction: 200°SSW
Pressure: 29.07"   Gusts: NA
Location:  43.18°N, 84.11°W
Report Text: KRNP 241534Z AUTO 20004KT 7SM DZ SCT006 OVC013 11/11 A2907 RMK AO2 T01130112
Loading
Personal Weather Stations






























Interactive Weather Map New forecast layout! Learn more

10-Day Weather Forecast

Advertisements
Track Severe Weather on mobile